Time;durP1;ratioP1;P1;durP2;ratioP2;P2;SDS_P1;SDS_P2;PMS_P1;PMS_P2;Temp;Humidity;BMP_temperature;BMP_pressure;BME280_temperature;BME280_humidity;BME280_pressure;Samples;Min_cycle;Max_cycle;Signal;HPM_P1;HPM_P2
2022/12/04 00:01:45;;;;;;;18.70;13.23;;;;;;;;;;5033775;28;20037;-81
2022/12/04 00:04:10;;;;;;;24.92;14.02;;;;;;;;;;5033991;28;20121;-81
2022/12/04 00:06:36;;;;;;;17.08;12.93;;;;;;;;;;5034010;28;20026;-81
2022/12/04 00:09:01;;;;;;;18.85;13.60;;;;;;;;;;5034999;28;20514;-81
2022/12/04 00:11:29;;;;;;;19.30;13.50;;;;;;;;;;5050376;28;20034;-81
2022/12/04 00:13:55;;;;;;;21.60;13.20;;;;;;;;;;5050273;28;20102;-80
2022/12/04 00:16:23;;;;;;;21.13;14.30;;;;;;;;;;5017086;28;20473;-80
2022/12/04 00:18:48;;;;;;;19.08;13.85;;;;;;;;;;5035003;28;20029;-80
2022/12/04 00:21:15;;;;;;;21.30;14.32;;;;;;;;;;5017057;28;20033;-80
2022/12/04 00:23:41;;;;;;;23.48;14.23;;;;;;;;;;5017003;28;20472;-80
2022/12/04 00:26:09;;;;;;;18.45;13.35;;;;;;;;;;5050008;28;20030;-80
2022/12/04 00:28:35;;;;;;;22.80;14.00;;;;;;;;;;5033762;28;20089;-81
2022/12/04 00:31:05;;;;;;;20.40;14.10;;;;;;;;;;5033464;28;20057;-81
2022/12/04 00:33:30;;;;;;;21.58;14.45;;;;;;;;;;5017086;28;20036;-81
2022/12/04 00:36:01;;;;;;;21.80;14.77;;;;;;;;;;5033377;28;20068;-81
2022/12/04 00:38:26;;;;;;;19.23;14.27;;;;;;;;;;5016728;28;20373;-81
2022/12/04 00:40:52;;;;;;;19.92;13.38;;;;;;;;;;5016926;28;20144;-81
2022/12/04 00:43:18;;;;;;;18.65;13.38;;;;;;;;;;5049649;28;20392;-81
2022/12/04 00:45:43;;;;;;;18.30;13.48;;;;;;;;;;5016574;28;20025;-81
2022/12/04 00:48:08;;;;;;;20.25;13.35;;;;;;;;;;5034506;28;20033;-81
2022/12/04 00:50:35;;;;;;;21.55;14.55;;;;;;;;;;5032993;28;20400;-81
2022/12/04 00:53:01;;;;;;;20.52;14.00;;;;;;;;;;5033204;28;20040;-82
2022/12/04 00:55:26;;;;;;;19.05;13.88;;;;;;;;;;5032939;28;20022;-81
2022/12/04 00:57:52;;;;;;;18.98;13.40;;;;;;;;;;5033049;28;20353;-81
2022/12/04 01:00:17;;;;;;;19.13;13.50;;;;;;;;;;5000017;28;20056;-82
2022/12/04 01:02:43;;;;;;;19.67;14.00;;;;;;;;;;5032832;28;20424;-81
2022/12/04 01:05:10;;;;;;;19.10;14.38;;;;;;;;;;5033062;28;20034;-81
2022/12/04 01:07:37;;;;;;;19.95;13.52;;;;;;;;;;5016031;28;20044;-82
2022/12/04 01:10:04;;;;;;;20.55;13.75;;;;;;;;;;5033074;28;20037;-81
2022/12/04 01:12:29;;;;;;;18.15;13.35;;;;;;;;;;5015879;28;20040;-82
2022/12/04 01:14:55;;;;;;;20.58;13.90;;;;;;;;;;5032460;28;20104;-82
2022/12/04 01:17:20;;;;;;;19.75;13.68;;;;;;;;;;5034051;28;20034;-82
2022/12/04 01:19:45;;;;;;;18.20;13.32;;;;;;;;;;5016055;28;20116;-82
2022/12/04 01:22:11;;;;;;;20.45;13.98;;;;;;;;;;5032683;28;20037;-81
2022/12/04 01:24:36;;;;;;;17.27;12.50;;;;;;;;;;5033902;28;20040;-80
2022/12/04 01:27:02;;;;;;;17.80;13.30;;;;;;;;;;5015832;28;20396;-81
2022/12/04 01:29:27;;;;;;;18.58;13.65;;;;;;;;;;5033704;28;20113;-82
2022/12/04 01:31:52;;;;;;;20.90;13.48;;;;;;;;;;5033455;28;20119;-81
2022/12/04 01:34:18;;;;;;;17.90;13.27;;;;;;;;;;4999383;28;20044;-81
2022/12/04 01:36:43;;;;;;;17.65;12.57;;;;;;;;;;5032011;28;20103;-81
2022/12/04 01:39:08;;;;;;;19.85;13.48;;;;;;;;;;5033356;28;20090;-81
2022/12/04 01:41:34;;;;;;;18.77;13.35;;;;;;;;;;5015512;28;20057;-80
2022/12/04 01:44:07;;;;;;;19.02;13.13;;;;;;;;;;5031875;28;20388;-81
2022/12/04 01:46:32;;;;;;;19.85;13.35;;;;;;;;;;5033234;28;20026;-80
2022/12/04 01:48:58;;;;;;;20.85;14.07;;;;;;;;;;5033250;28;20029;-80
2022/12/04 01:51:29;;;;;;;19.77;13.52;;;;;;;;;;5032102;28;20040;-81
2022/12/04 01:53:58;;;;;;;24.02;13.13;;;;;;;;;;5031836;28;20033;-80
2022/12/04 01:56:30;;;;;;;21.23;12.93;;;;;;;;;;5032932;28;20039;-80
2022/12/04 01:58:58;;;;;;;17.55;12.82;;;;;;;;;;5015401;28;20112;-80
2022/12/04 02:01:26;;;;;;;19.02;13.48;;;;;;;;;;5031619;28;20072;-81
2022/12/04 02:03:52;;;;;;;21.75;14.02;;;;;;;;;;5015118;28;20032;-81
2022/12/04 02:06:17;;;;;;;18.92;13.32;;;;;;;;;;5015147;28;20108;-81
2022/12/04 02:08:43;;;;;;;17.83;12.82;;;;;;;;;;5031807;28;20041;-80
2022/12/04 02:11:16;;;;;;;18.50;13.38;;;;;;;;;;5015076;28;20025;-81
2022/12/04 02:13:52;;;;;;;18.13;13.45;;;;;;;;;;5031676;28;20021;-80
2022/12/04 02:16:36;;;;;;;19.30;13.98;;;;;;;;;;5031467;28;20029;-81
2022/12/04 02:19:04;;;;;;;20.52;13.25;;;;;;;;;;5032656;28;20032;-81
2022/12/04 02:21:42;;;;;;;19.70;13.63;;;;;;;;;;5031365;28;20156;-81
2022/12/04 02:24:25;;;;;;;18.92;13.15;;;;;;;;;;5030719;28;20021;-81
2022/12/04 02:27:07;;;;;;;19.95;12.70;;;;;;;;;;5031384;28;20025;-81
2022/12/04 02:29:49;;;;;;;19.10;12.85;;;;;;;;;;5014885;28;20057;-81
2022/12/04 02:32:18;;;;;;;20.27;13.35;;;;;;;;;;5031303;28;20033;-80
2022/12/04 02:34:53;;;;;;;18.33;13.18;;;;;;;;;;5032877;28;20041;-81
2022/12/04 02:37:41;;;;;;;18.00;12.95;;;;;;;;;;5031218;28;20029;-81
2022/12/04 02:40:14;;;;;;;19.42;14.30;;;;;;;;;;5031423;28;20032;-81
2022/12/04 02:42:42;;;;;;;18.40;12.57;;;;;;;;;;5031261;28;20136;-81
2022/12/04 02:45:11;;;;;;;20.67;14.05;;;;;;;;;;5031026;28;20033;-81
2022/12/04 02:47:39;;;;;;;18.73;13.32;;;;;;;;;;5031084;28;20021;-80
2022/12/04 02:50:11;;;;;;;20.77;13.70;;;;;;;;;;5031178;28;20040;-80
2022/12/04 02:52:41;;;;;;;17.98;13.07;;;;;;;;;;5014672;28;20480;-80
2022/12/04 02:55:22;;;;;;;18.73;12.77;;;;;;;;;;5031251;28;20037;-80
2022/12/04 02:57:55;;;;;;;20.70;13.43;;;;;;;;;;5031141;28;20029;-80
2022/12/04 03:00:21;;;;;;;18.70;13.38;;;;;;;;;;5030950;28;20084;-81
2022/12/04 03:02:59;;;;;;;22.92;13.75;;;;;;;;;;5032615;28;20396;-81
2022/12/04 03:05:40;;;;;;;20.67;13.77;;;;;;;;;;5031583;28;20041;-80
2022/12/04 03:08:14;;;;;;;19.15;13.13;;;;;;;;;;5014453;28;20029;-81
2022/12/04 03:10:51;;;;;;;19.30;14.23;;;;;;;;;;5014363;28;20022;-82
2022/12/04 03:13:20;;;;;;;21.67;14.60;;;;;;;;;;5032415;28;20064;-82
2022/12/04 03:16:00;;;;;;;18.88;13.95;;;;;;;;;;5030728;28;20104;-82
2022/12/04 03:18:31;;;;;;;18.02;13.40;;;;;;;;;;5031994;28;20025;-82
2022/12/04 03:21:01;;;;;;;22.33;14.18;;;;;;;;;;5014387;28;20042;-81
2022/12/04 03:23:33;;;;;;;19.33;13.65;;;;;;;;;;5032500;28;20057;-82
2022/12/04 03:26:29;;;;;;;22.25;14.02;;;;;;;;;;5031076;28;20017;-81
2022/12/04 03:29:00;;;;;;;18.35;12.60;;;;;;;;;;5031054;28;20084;-81
2022/12/04 03:31:33;;;;;;;18.45;12.90;;;;;;;;;;5030647;28;20036;-80
2022/12/04 03:33:59;;;;;;;20.40;13.32;;;;;;;;;;5031387;28;20038;-81
2022/12/04 03:36:30;;;;;;;22.30;13.60;;;;;;;;;;5034624;28;20128;-81
2022/12/04 03:39:16;;;;;;;19.27;13.48;;;;;;;;;;5034272;28;20048;-81
2022/12/04 03:41:59;;;;;;;18.65;13.65;;;;;;;;;;5035654;28;20025;-81
2022/12/04 03:44:37;;;;;;;17.27;12.83;;;;;;;;;;5035506;28;20556;-81
2022/12/04 03:47:06;;;;;;;19.42;12.48;;;;;;;;;;5034359;28;20079;-82
2022/12/04 03:49:40;;;;;;;18.25;13.50;;;;;;;;;;5034093;28;20025;-81
2022/12/04 03:52:12;;;;;;;19.00;13.25;;;;;;;;;;5017522;28;20025;-82
2022/12/04 03:54:51;;;;;;;18.02;12.88;;;;;;;;;;5033784;28;20026;-81
2022/12/04 03:57:23;;;;;;;18.88;13.18;;;;;;;;;;5034171;28;20041;-81
2022/12/04 03:59:54;;;;;;;20.35;13.25;;;;;;;;;;5033873;28;20103;-81
2022/12/04 04:02:21;;;;;;;18.00;13.45;;;;;;;;;;5033764;28;20450;-81
2022/12/04 04:04:51;;;;;;;18.40;13.48;;;;;;;;;;5033977;28;20052;-81
2022/12/04 04:07:22;;;;;;;18.25;13.43;;;;;;;;;;5033749;28;20075;-81
2022/12/04 04:09:49;;;;;;;18.00;12.93;;;;;;;;;;5033775;28;20464;-80
2022/12/04 04:12:17;;;;;;;19.70;13.55;;;;;;;;;;5035397;28;20108;-80
2022/12/04 04:26:13;;;;;;;25.42;13.90;;;;;;;;;;5033958;28;20457;-81
2022/12/04 04:28:40;;;;;;;20.92;14.18;;;;;;;;;;5017030;28;20033;-82
2022/12/04 04:31:26;;;;;;;17.42;13.57;;;;;;;;;;5034579;28;20033;-82
2022/12/04 04:34:18;;;;;;;20.33;14.63;;;;;;;;;;5034696;28;20026;-82
2022/12/04 04:37:22;;;;;;;18.88;13.38;;;;;;;;;;5016752;28;20112;-81
2022/12/04 04:39:58;;;;;;;22.07;13.73;;;;;;;;;;5031062;28;20041;-81
2022/12/04 04:42:50;;;;;;;21.60;13.82;;;;;;;;;;5034379;28;20423;-81
2022/12/04 04:45:18;;;;;;;20.65;14.02;;;;;;;;;;4990262;28;20029;-81
2022/12/04 04:47:46;;;;;;;19.60;14.73;;;;;;;;;;5034204;28;20037;-82
2022/12/04 04:50:12;;;;;;;18.55;13.48;;;;;;;;;;5016602;28;20495;-81
2022/12/04 04:52:40;;;;;;;19.65;14.38;;;;;;;;;;5016444;28;20060;-82
2022/12/04 04:55:06;;;;;;;20.15;14.30;;;;;;;;;;5032676;28;20056;-82
2022/12/04 04:57:34;;;;;;;19.40;13.32;;;;;;;;;;5016516;28;20053;-81
2022/12/04 05:00:19;;;;;;;21.77;13.82;;;;;;;;;;5049384;28;20057;-81
2022/12/04 05:02:45;;;;;;;22.48;14.45;;;;;;;;;;5033619;28;20104;-81
2022/12/04 05:05:11;;;;;;;19.17;14.77;;;;;;;;;;5017256;28;20125;-80
2022/12/04 05:07:37;;;;;;;18.88;13.70;;;;;;;;;;5033494;28;20030;-81
2022/12/04 05:10:03;;;;;;;19.70;13.70;;;;;;;;;;5017033;28;20033;-82
2022/12/04 05:12:29;;;;;;;22.67;13.18;;;;;;;;;;5033484;28;20033;-81
2022/12/04 05:14:54;;;;;;;22.45;14.68;;;;;;;;;;5033383;28;20055;-83
2022/12/04 05:17:19;;;;;;;22.85;14.30;;;;;;;;;;5034595;28;20033;-82
2022/12/04 05:19:55;;;;;;;22.65;15.20;;;;;;;;;;5033254;28;20433;-81
2022/12/04 05:22:30;;;;;;;18.13;13.48;;;;;;;;;;5049853;28;20030;-82
2022/12/04 05:24:56;;;;;;;18.30;14.02;;;;;;;;;;5033485;28;20026;-81
2022/12/04 05:27:22;;;;;;;24.70;15.50;;;;;;;;;;5033815;28;20097;-81
2022/12/04 05:29:48;;;;;;;19.73;13.75;;;;;;;;;;5016753;28;20032;-82
2022/12/04 05:32:13;;;;;;;21.65;14.05;;;;;;;;;;5033259;28;20033;-82
2022/12/04 05:34:39;;;;;;;19.55;14.20;;;;;;;;;;5033163;28;20069;-82
2022/12/04 05:37:05;;;;;;;22.27;14.85;;;;;;;;;;5033342;28;20383;-81
2022/12/04 05:39:30;;;;;;;20.55;13.15;;;;;;;;;;5016585;28;20396;-82
2022/12/04 05:41:55;;;;;;;25.27;13.25;;;;;;;;;;5034141;28;20112;-81
2022/12/04 05:44:21;;;;;;;18.58;13.57;;;;;;;;;;5034157;28;20478;-81
2022/12/04 05:46:47;;;;;;;18.23;13.77;;;;;;;;;;4999987;28;20494;-81
2022/12/04 05:49:12;;;;;;;22.27;14.68;;;;;;;;;;5016189;28;20024;-81
2022/12/04 05:51:38;;;;;;;22.75;15.05;;;;;;;;;;5034196;28;20041;-81
2022/12/04 05:54:03;;;;;;;19.58;13.45;;;;;;;;;;5032669;28;20041;-81
2022/12/04 05:56:28;;;;;;;19.25;13.68;;;;;;;;;;5032974;28;20029;-80
2022/12/04 05:58:54;;;;;;;19.27;13.85;;;;;;;;;;5031999;28;20393;-80
2022/12/04 06:01:22;;;;;;;18.85;13.25;;;;;;;;;;5015959;28;20053;-81
2022/12/04 06:03:48;;;;;;;20.13;13.88;;;;;;;;;;5032436;28;20056;-81
2022/12/04 06:06:15;;;;;;;19.75;13.23;;;;;;;;;;5032662;28;20480;-80
2022/12/04 06:08:41;;;;;;;17.10;13.02;;;;;;;;;;5032815;28;20031;-80
2022/12/04 06:11:21;;;;;;;19.67;13.18;;;;;;;;;;5032366;28;20034;-81
2022/12/04 06:13:47;;;;;;;17.92;12.95;;;;;;;;;;5032359;28;20025;-81
2022/12/04 06:16:17;;;;;;;19.08;12.82;;;;;;;;;;5033860;28;20113;-80
2022/12/04 06:18:43;;;;;;;19.15;12.93;;;;;;;;;;5032498;28;20104;-80
2022/12/04 06:21:09;;;;;;;25.30;13.50;;;;;;;;;;5015255;28;20053;-81
2022/12/04 06:23:35;;;;;;;19.52;13.25;;;;;;;;;;5031433;28;20547;-81
2022/12/04 06:26:05;;;;;;;18.58;12.93;;;;;;;;;;5032336;28;20104;-81
2022/12/04 06:28:30;;;;;;;20.20;13.35;;;;;;;;;;5016626;28;20479;-80
2022/12/04 06:31:00;;;;;;;19.17;13.15;;;;;;;;;;5032172;28;20033;-81
2022/12/04 06:33:25;;;;;;;20.65;13.85;;;;;;;;;;5015603;28;20480;-81
2022/12/04 06:36:00;;;;;;;17.42;12.95;;;;;;;;;;5033051;28;20034;-81
2022/12/04 06:38:26;;;;;;;17.48;13.13;;;;;;;;;;5032440;28;20384;-80
2022/12/04 06:40:51;;;;;;;17.83;12.82;;;;;;;;;;5015766;28;20033;-81
2022/12/04 06:43:16;;;;;;;19.60;13.15;;;;;;;;;;5033202;28;20068;-80
2022/12/04 06:45:42;;;;;;;18.50;13.25;;;;;;;;;;5015452;28;20473;-81
2022/12/04 06:48:07;;;;;;;18.17;12.23;;;;;;;;;;5048479;28;20037;-81
2022/12/04 06:50:32;;;;;;;16.65;12.10;;;;;;;;;;4999169;28;20037;-81
2022/12/04 06:52:58;;;;;;;17.75;12.48;;;;;;;;;;5031898;28;20033;-82
2022/12/04 06:55:23;;;;;;;16.98;13.07;;;;;;;;;;5031826;28;20033;-81
2022/12/04 06:57:48;;;;;;;19.35;12.70;;;;;;;;;;5032561;28;20357;-81
2022/12/04 07:00:15;;;;;;;16.15;12.25;;;;;;;;;;5031993;28;20084;-82
2022/12/04 07:02:40;;;;;;;21.10;13.55;;;;;;;;;;5031875;28;20034;-81
2022/12/04 07:05:06;;;;;;;18.38;13.07;;;;;;;;;;5033335;28;20036;-81
2022/12/04 07:07:31;;;;;;;22.58;12.55;;;;;;;;;;5031758;28;20107;-81
2022/12/04 07:09:56;;;;;;;18.65;13.13;;;;;;;;;;5034060;28;20034;-81
2022/12/04 07:12:22;;;;;;;16.95;12.32;;;;;;;;;;5037203;28;20535;-81
2022/12/04 07:14:47;;;;;;;16.65;12.27;;;;;;;;;;5035574;28;20033;-81
2022/12/04 07:17:12;;;;;;;16.33;12.10;;;;;;;;;;5035925;28;20037;-82
2022/12/04 07:19:38;;;;;;;17.73;12.52;;;;;;;;;;5019141;28;20396;-81
2022/12/04 07:22:04;;;;;;;19.63;13.18;;;;;;;;;;5035873;28;20037;-81
2022/12/04 07:24:29;;;;;;;17.92;12.95;;;;;;;;;;5035783;28;20033;-81
2022/12/04 07:26:55;;;;;;;18.05;12.52;;;;;;;;;;5036874;28;20031;-81
2022/12/04 07:29:20;;;;;;;18.63;12.68;;;;;;;;;;5035239;28;20029;-81
2022/12/04 07:31:45;;;;;;;18.08;12.73;;;;;;;;;;5035234;28;20037;-81
2022/12/04 07:34:11;;;;;;;18.35;12.68;;;;;;;;;;5051716;28;20124;-82
2022/12/04 07:36:38;;;;;;;18.13;12.43;;;;;;;;;;5035030;28;20029;-81
2022/12/04 07:39:03;;;;;;;18.95;13.00;;;;;;;;;;5018928;28;20124;-81
2022/12/04 07:41:28;;;;;;;19.42;12.60;;;;;;;;;;5018608;28;20120;-81
2022/12/04 07:43:54;;;;;;;23.70;12.50;;;;;;;;;;5036291;28;20033;-81
2022/12/04 07:46:21;;;;;;;18.13;12.82;;;;;;;;;;5036456;28;20468;-81
2022/12/04 07:48:47;;;;;;;22.85;12.57;;;;;;;;;;5034839;28;20030;-81
2022/12/04 07:51:18;;;;;;;21.17;13.60;;;;;;;;;;5036399;28;20029;-81
2022/12/04 07:53:43;;;;;;;18.25;12.88;;;;;;;;;;5035422;28;20029;-81
2022/12/04 07:56:10;;;;;;;23.27;13.68;;;;;;;;;;5051206;28;20419;-81
2022/12/04 07:58:36;;;;;;;20.75;13.32;;;;;;;;;;5035277;28;20078;-82
2022/12/04 08:01:21;;;;;;;20.92;13.07;;;;;;;;;;5034708;28;20049;-81
2022/12/04 08:03:48;;;;;;;20.25;12.30;;;;;;;;;;5051168;28;20117;-81
2022/12/04 08:06:15;;;;;;;21.90;12.73;;;;;;;;;;5034679;28;20155;-82
2022/12/04 08:08:40;;;;;;;17.88;12.65;;;;;;;;;;5035024;28;20029;-82
2022/12/04 08:11:08;;;;;;;20.20;12.50;;;;;;;;;;5018105;28;20056;-82
2022/12/04 08:13:34;;;;;;;20.67;12.82;;;;;;;;;;5036203;28;20038;-84
2022/12/04 08:16:01;;;;;;;29.50;13.30;;;;;;;;;;5034848;28;20033;-82
2022/12/04 08:18:26;;;;;;;27.63;12.35;;;;;;;;;;5017928;28;20017;-80
2022/12/04 08:20:52;;;;;;;25.48;12.88;;;;;;;;;;5033730;28;20036;-81
2022/12/04 08:23:17;;;;;;;22.40;12.20;;;;;;;;;;5034407;28;20099;-80
2022/12/04 08:25:43;;;;;;;18.95;12.13;;;;;;;;;;5034543;28;20464;-80
2022/12/04 08:28:08;;;;;;;23.80;11.52;;;;;;;;;;5017718;28;20041;-80
2022/12/04 08:30:34;;;;;;;26.83;12.45;;;;;;;;;;5034317;28;20098;-81
2022/12/04 08:32:59;;;;;;;20.42;11.98;;;;;;;;;;5034235;28;20473;-80
2022/12/04 08:35:25;;;;;;;20.15;12.25;;;;;;;;;;5018232;28;20082;-81
2022/12/04 08:37:50;;;;;;;17.30;11.57;;;;;;;;;;5017813;28;20041;-80
2022/12/04 08:40:16;;;;;;;16.35;11.75;;;;;;;;;;5035568;28;20025;-80
2022/12/04 08:42:41;;;;;;;17.52;11.45;;;;;;;;;;5035833;28;20030;-80
2022/12/04 08:45:07;;;;;;;18.83;11.82;;;;;;;;;;5034295;28;20052;-80
2022/12/04 08:47:33;;;;;;;18.80;13.13;;;;;;;;;;5018111;28;20053;-80
2022/12/04 08:49:58;;;;;;;18.83;12.23;;;;;;;;;;5035389;28;20468;-80
2022/12/04 08:52:23;;;;;;;23.13;13.00;;;;;;;;;;5035365;28;20037;-81
2022/12/04 08:54:49;;;;;;;21.50;13.52;;;;;;;;;;5033878;28;20039;-80
2022/12/04 08:57:15;;;;;;;18.55;12.20;;;;;;;;;;5050290;28;20476;-80
2022/12/04 08:59:40;;;;;;;26.77;12.85;;;;;;;;;;5033734;28;20030;-82
2022/12/04 09:02:08;;;;;;;18.13;12.77;;;;;;;;;;5017145;28;20053;-81
2022/12/04 09:04:33;;;;;;;20.90;13.15;;;;;;;;;;5033810;28;20041;-84
2022/12/04 09:06:59;;;;;;;31.27;13.95;;;;;;;;;;5038359;28;20108;-82
2022/12/04 09:09:24;;;;;;;26.33;12.88;;;;;;;;;;5020887;28;20423;-84
2022/12/04 09:11:49;;;;;;;31.55;13.90;;;;;;;;;;5054209;28;20036;-85
2022/12/04 09:14:15;;;;;;;19.02;12.80;;;;;;;;;;5036729;28;20136;-80
2022/12/04 09:16:40;;;;;;;27.40;13.52;;;;;;;;;;5050126;28;20030;-81
2022/12/04 09:19:06;;;;;;;17.55;12.52;;;;;;;;;;5033828;28;20033;-81
2022/12/04 09:21:31;;;;;;;21.10;12.00;;;;;;;;;;5034818;28;20025;-80
2022/12/04 09:23:58;;;;;;;20.80;12.52;;;;;;;;;;5034746;28;20492;-79
2022/12/04 09:26:25;;;;;;;21.60;12.65;;;;;;;;;;5033763;28;20021;-80
2022/12/04 09:28:52;;;;;;;19.83;12.25;;;;;;;;;;5033618;28;20079;-81
2022/12/04 09:31:18;;;;;;;22.80;12.68;;;;;;;;;;5033232;28;20390;-80
2022/12/04 09:33:43;;;;;;;23.00;12.90;;;;;;;;;;5032862;28;20030;-81
2022/12/04 09:36:14;;;;;;;21.02;12.10;;;;;;;;;;5033130;28;20061;-80
2022/12/04 09:38:47;;;;;;;24.75;12.38;;;;;;;;;;5034605;28;20104;-81
2022/12/04 09:41:24;;;;;;;23.80;12.52;;;;;;;;;;5016572;28;20037;-81
2022/12/04 09:44:08;;;;;;;17.70;11.32;;;;;;;;;;5034154;28;20476;-80
2022/12/04 09:46:35;;;;;;;24.15;13.57;;;;;;;;;;5032926;28;20029;-81
2022/12/04 09:49:09;;;;;;;19.35;12.40;;;;;;;;;;5033178;28;20033;-82
2022/12/04 09:51:37;;;;;;;20.55;11.32;;;;;;;;;;5032833;28;20047;-82
2022/12/04 09:54:09;;;;;;;22.17;13.13;;;;;;;;;;5032877;28;20068;-82
2022/12/04 09:56:34;;;;;;;17.83;11.77;;;;;;;;;;5016060;28;20033;-82
2022/12/04 09:59:22;;;;;;;18.60;12.00;;;;;;;;;;4996440;28;20511;-81
2022/12/04 10:02:11;;;;;;;17.85;11.93;;;;;;;;;;5031408;28;20053;-84
2022/12/04 10:04:36;;;;;;;19.02;11.45;;;;;;;;;;5014282;28;20053;-81
2022/12/04 10:07:08;;;;;;;18.63;11.93;;;;;;;;;;5030980;28;20109;-82
2022/12/04 10:09:33;;;;;;;18.92;12.13;;;;;;;;;;5031297;28;20610;-80
2022/12/04 10:11:58;;;;;;;19.38;11.45;;;;;;;;;;5030141;28;20026;-80
2022/12/04 10:14:27;;;;;;;21.73;11.98;;;;;;;;;;5033025;28;20029;-80
2022/12/04 10:17:44;;;;;;;15.98;10.82;;;;;;;;;;5032628;28;20025;-80
2022/12/04 10:20:56;;;;;;;17.05;10.88;;;;;;;;;;5009217;28;20034;-80
2022/12/04 10:23:44;;;;;;;17.95;11.23;;;;;;;;;;5033838;28;20044;-80
2022/12/04 10:26:18;;;;;;;16.23;10.88;;;;;;;;;;5033940;28;20029;-80
2022/12/04 10:28:51;;;;;;;17.25;11.18;;;;;;;;;;5032508;28;20021;-80
2022/12/04 10:31:17;;;;;;;17.10;11.15;;;;;;;;;;5032423;28;20025;-80
2022/12/04 10:33:52;;;;;;;16.75;10.85;;;;;;;;;;5031937;28;20124;-81
2022/12/04 10:36:26;;;;;;;19.48;11.32;;;;;;;;;;5015608;28;20060;-80
2022/12/04 10:38:55;;;;;;;15.05;10.10;;;;;;;;;;5032507;28;20116;-83
2022/12/04 10:41:25;;;;;;;22.67;11.05;;;;;;;;;;5015624;28;20381;-82
2022/12/04 10:43:51;;;;;;;17.08;9.90;;;;;;;;;;5033896;28;20029;-81
2022/12/04 10:46:19;;;;;;;19.05;10.35;;;;;;;;;;5055382;28;20025;-82
2022/12/04 10:48:48;;;;;;;21.65;10.25;;;;;;;;;;5040199;28;20025;-81
2022/12/04 10:51:18;;;;;;;16.30;10.23;;;;;;;;;;5038748;28;20025;-80
2022/12/04 10:53:44;;;;;;;26.38;10.23;;;;;;;;;;5039975;28;20105;-81
2022/12/04 10:56:16;;;;;;;16.85;10.30;;;;;;;;;;5038550;28;20026;-80
2022/12/04 10:58:53;;;;;;;20.90;10.73;;;;;;;;;;5022341;28;20499;-81
2022/12/04 11:01:20;;;;;;;18.73;10.10;;;;;;;;;;5038759;28;20060;-81
2022/12/04 11:03:46;;;;;;;15.77;10.70;;;;;;;;;;5038914;28;20057;-80
2022/12/04 11:06:13;;;;;;;14.75;9.77;;;;;;;;;;5038608;28;20053;-80
2022/12/04 11:08:41;;;;;;;21.42;9.77;;;;;;;;;;5055223;28;20506;-80
2022/12/04 11:11:10;;;;;;;23.75;9.82;;;;;;;;;;5055141;28;20543;-78
2022/12/04 11:13:35;;;;;;;14.82;9.07;;;;;;;;;;5054961;28;20369;-80
2022/12/04 11:16:01;;;;;;;17.77;9.25;;;;;;;;;;5055045;28;20108;-81
2022/12/04 11:18:32;;;;;;;15.25;9.50;;;;;;;;;;5055423;28;20041;-82
2022/12/04 11:21:06;;;;;;;14.95;9.57;;;;;;;;;;5055445;28;20025;-81
2022/12/04 11:23:32;;;;;;;;;;;;;;;;;;5038804;28;20025;-82
2022/12/04 11:25:58;;;;;;;14.20;8.30;;;;;;;;;;5038669;28;19909;-82
2022/12/04 11:28:32;;;;;;;13.98;8.43;;;;;;;;;;5055249;28;20076;-81
2022/12/04 11:30:59;;;;;;;12.45;7.97;;;;;;;;;;5054962;28;20472;-78
2022/12/04 11:33:31;;;;;;;14.90;7.72;;;;;;;;;;5055598;28;20041;-78
2022/12/04 11:36:00;;;;;;;15.35;8.63;;;;;;;;;;5039840;28;20033;-81
2022/12/04 11:38:27;;;;;;;16.73;8.02;;;;;;;;;;5055059;28;20025;-81
2022/12/04 11:40:55;;;;;;;21.48;8.77;;;;;;;;;;5038072;28;20025;-79
2022/12/04 11:43:26;;;;;;;12.90;8.30;;;;;;;;;;5054867;28;20036;-79
2022/12/04 11:45:56;;;;;;;14.25;8.48;;;;;;;;;;5039759;28;20376;-78
2022/12/04 11:48:22;;;;;;;13.55;8.73;;;;;;;;;;5039460;28;20110;-79
2022/12/04 11:51:18;;;;;;;14.00;7.63;;;;;;;;;;5039342;28;20076;-81
2022/12/04 11:54:03;;;;;;;11.30;8.07;;;;;;;;;;5039375;28;20381;-79
2022/12/04 11:56:31;;;;;;;9.38;6.88;;;;;;;;;;5052193;28;20025;-79
2022/12/04 11:59:21;;;;;;;14.30;8.07;;;;;;;;;;5036496;28;20026;-81
2022/12/04 12:01:54;;;;;;;9.27;6.88;;;;;;;;;;5035911;28;20057;-81
2022/12/04 12:04:29;;;;;;;;;;;;;;;;;;5051669;28;20039;-79
2022/12/04 12:07:32;;;;;;;9.10;7.03;;;;;;;;;;5034673;28;19970;-81
2022/12/04 12:10:11;;;;;;;11.00;7.10;;;;;;;;;;5036129;28;20032;-81
2022/12/04 12:13:01;;;;;;;10.95;7.40;;;;;;;;;;5051254;28;20029;-82
2022/12/04 12:15:57;;;;;;;12.38;7.55;;;;;;;;;;5035769;28;20101;-81
2022/12/04 12:18:31;;;;;;;10.07;6.90;;;;;;;;;;5035621;28;20029;-82
2022/12/04 12:21:00;;;;;;;;;;;;;;;;;;5051692;28;20026;-79
2022/12/04 12:23:54;;;;;;;11.10;6.72;;;;;;;;;;5035488;28;19959;-81
2022/12/04 12:26:23;;;;;;;12.50;7.20;;;;;;;;;;5032201;28;20013;-79
2022/12/04 12:29:01;;;;;;;15.98;7.75;;;;;;;;;;5050001;28;20025;-80
2022/12/04 12:31:35;;;;;;;9.60;6.72;;;;;;;;;;5035199;28;20033;-81
2022/12/04 12:34:17;;;;;;;9.75;6.65;;;;;;;;;;5034007;28;20115;-80
2022/12/04 12:36:46;;;;;;;8.85;6.30;;;;;;;;;;5050470;28;20036;-82
2022/12/04 12:39:15;;;;;;;11.07;6.68;;;;;;;;;;5033638;28;20468;-80
2022/12/04 12:41:54;;;;;;;10.77;6.80;;;;;;;;;;5050111;28;20033;-79
2022/12/04 12:44:33;;;;;;;10.45;6.97;;;;;;;;;;5050809;28;20026;-79
2022/12/04 12:47:09;;;;;;;11.15;6.28;;;;;;;;;;5033928;28;20037;-80
2022/12/04 12:49:52;;;;;;;8.82;6.28;;;;;;;;;;5050338;28;20029;-81
2022/12/04 12:52:56;;;;;;;9.07;6.13;;;;;;;;;;5050402;28;20032;-82
2022/12/04 12:55:25;;;;;;;12.30;6.07;;;;;;;;;;5050276;28;20502;-81
2022/12/04 12:58:14;;;;;;;12.25;6.15;;;;;;;;;;5050036;28;20025;-81
2022/12/04 13:00:47;;;;;;;9.45;6.30;;;;;;;;;;5049895;28;20527;-79
2022/12/04 13:03:34;;;;;;;11.60;6.53;;;;;;;;;;5049806;28;20025;-81
2022/12/04 13:06:04;;;;;;;11.38;6.47;;;;;;;;;;5034969;28;20254;-81
2022/12/04 13:08:59;;;;;;;9.15;6.45;;;;;;;;;;5050072;28;20033;-80
2022/12/04 13:11:26;;;;;;;9.60;7.10;;;;;;;;;;5029863;28;20041;-81
2022/12/04 13:14:01;;;;;;;11.30;6.63;;;;;;;;;;5049928;28;20033;-80
2022/12/04 13:16:37;;;;;;;8.88;6.38;;;;;;;;;;5049789;28;20607;-80
2022/12/04 13:19:12;;;;;;;10.10;6.43;;;;;;;;;;5049626;28;20029;-81
2022/12/04 13:21:45;;;;;;;11.32;6.85;;;;;;;;;;5049823;28;20021;-81
2022/12/04 13:24:50;;;;;;;9.37;6.80;;;;;;;;;;5049819;28;20017;-80
2022/12/04 13:27:37;;;;;;;;;;;;;;;;;;5034624;28;20617;-80
2022/12/04 13:30:05;;;;;;;7.97;6.00;;;;;;;;;;5033065;28;19909;-81
2022/12/04 13:32:55;;;;;;;9.65;6.57;;;;;;;;;;5049417;28;20029;-81
2022/12/04 13:35:29;;;;;;;9.32;6.22;;;;;;;;;;5035030;28;20415;-81
2022/12/04 13:38:17;;;;;;;8.88;6.35;;;;;;;;;;5049469;28;20056;-79
2022/12/04 13:40:46;;;;;;;8.88;6.15;;;;;;;;;;5033886;28;20029;-80
2022/12/04 13:43:19;;;;;;;10.98;6.88;;;;;;;;;;5049237;28;20560;-79
2022/12/04 13:45:46;;;;;;;8.75;6.45;;;;;;;;;;5032710;28;20025;-79
2022/12/04 13:48:11;;;;;;;10.98;6.95;;;;;;;;;;5049469;28;20499;-78
2022/12/04 13:50:39;;;;;;;9.05;6.45;;;;;;;;;;5048937;28;20033;-79
2022/12/04 13:53:33;;;;;;;10.27;6.63;;;;;;;;;;5035617;28;20080;-78
2022/12/04 13:55:59;;;;;;;10.50;6.43;;;;;;;;;;5012369;28;20029;-79
2022/12/04 13:58:30;;;;;;;9.55;6.30;;;;;;;;;;5029288;28;20112;-79
2022/12/04 14:01:11;;;;;;;9.27;6.38;;;;;;;;;;5028893;28;20136;-79
2022/12/04 14:03:46;;;;;;;11.98;6.43;;;;;;;;;;5028882;28;20038;-80
2022/12/04 14:06:38;;;;;;;12.20;6.93;;;;;;;;;;5029066;28;20121;-79
2022/12/04 14:09:31;;;;;;;9.45;6.80;;;;;;;;;;5028997;28;20080;-79
2022/12/04 14:12:00;;;;;;;9.13;6.57;;;;;;;;;;5012314;28;20040;-80
2022/12/04 14:14:29;;;;;;;10.98;6.95;;;;;;;;;;5012368;28;20033;-80
2022/12/04 14:16:56;;;;;;;14.48;7.38;;;;;;;;;;5028800;28;20072;-80
2022/12/04 14:19:34;;;;;;;11.45;6.63;;;;;;;;;;5028037;28;20022;-79
2022/12/04 14:22:00;;;;;;;12.52;7.35;;;;;;;;;;5029093;28;20030;-81
2022/12/04 14:24:37;;;;;;;12.05;6.97;;;;;;;;;;5028804;28;20040;-79
2022/12/04 14:27:41;;;;;;;8.63;6.55;;;;;;;;;;5028831;28;20476;-80
2022/12/04 14:30:12;;;;;;;9.57;6.57;;;;;;;;;;5013483;28;20041;-80
2022/12/04 14:32:40;;;;;;;11.70;7.53;;;;;;;;;;5013552;28;20037;-80
2022/12/04 14:35:12;;;;;;;11.75;7.07;;;;;;;;;;5028509;28;20536;-80
2022/12/04 14:37:43;;;;;;;13.55;7.20;;;;;;;;;;5012298;28;20377;-80
2022/12/04 14:40:26;;;;;;;10.32;7.32;;;;;;;;;;5028566;28;20500;-82
2022/12/04 14:42:52;;;;;;;14.57;6.88;;;;;;;;;;4995903;28;20084;-81
2022/12/04 14:45:36;;;;;;;15.23;7.50;;;;;;;;;;5028381;28;20423;-81
2022/12/04 14:48:35;;;;;;;16.38;7.85;;;;;;;;;;5028728;28;20021;-81
2022/12/04 14:51:16;;;;;;;11.27;7.95;;;;;;;;;;5013173;28;20096;-82
2022/12/04 14:53:48;;;;;;;10.07;7.43;;;;;;;;;;5028352;28;20025;-82
2022/12/04 14:56:30;;;;;;;12.02;7.50;;;;;;;;;;5011950;28;20026;-81
2022/12/04 14:58:56;;;;;;;10.68;7.70;;;;;;;;;;5013217;28;20030;-82